Cleethorpes, United Kingdom
Current Conditions -  °F | °C
As of 8:50 AM on Friday 31 Oct 2014 (Local Time) from EGXS Reporting Station
Broken Clouds Broken Clouds  
Wind Chill: 57°   Ceiling: 17000
Heat Index: 57°   Visibility: 1.9mi
Dew Point: 55°   Wind: 12mph
Humidity: 94%   Direction: 180°S
Pressure: 30"   Gusts: NA
Location:  53.56°N, 0.03°W
Report Text: EGXS 310850Z AUTO 18010KT 3100 // FEW130/// BKN170/// 14/13 Q1016
Loading
Personal Weather Stations






























Interactive Weather Map
Tropical Storm Tracking
New forecast layout! Learn more

10-Day Weather Forecast

Advertisements
Track Severe Weather on mobile